Soul City, North Carolina
Current Conditions -  °F | °C
As of 4:55 AM on Sunday 26 Oct 2014 (Local Time) from KHNZ Reporting Station
Clear Clear  
Wind Chill: 12°   Ceiling: Unl
Heat Index: 12°   Visibility: 10mi
Dew Point:   Wind: 6mph
Humidity: 76%   Direction: 250°WSW
Pressure: 29.79"   Gusts: NA
Location:  36.4679°N, 78.2938°W
Report Text: KHNZ 260855Z AUTO 25005KT 10SM CLR 12/08 A2979 RMK AO2 T01210079
Loading
Personal Weather Stations






























Interactive Weather Map
Tropical Storm Tracking
New forecast layout! Learn more

10-Day Weather Forecast

Advertisements
Track Severe Weather on mobile